createdAt,value
2023-03-21T00:01:53.690Z,38.08
2023-03-21T00:04:22.191Z,37.95
2023-03-21T00:06:49.498Z,40.42
2023-03-21T00:09:16.884Z,40.60
2023-03-21T00:11:44.683Z,41.08
2023-03-21T00:14:14.737Z,39.15
2023-03-21T00:16:45.779Z,39.60
2023-03-21T00:19:14.640Z,38.90
2023-03-21T00:22:05.804Z,39.17
2023-03-21T00:24:30.926Z,38.72
2023-03-21T00:27:12.516Z,39.20
2023-03-21T00:29:45.453Z,39.88
2023-03-21T00:32:12.881Z,39.22
2023-03-21T00:34:43.320Z,42.45
2023-03-21T00:37:21.573Z,39.83
2023-03-21T00:39:49.584Z,40.88
2023-03-21T00:42:17.236Z,41.38
2023-03-21T00:44:45.004Z,41.25
2023-03-21T00:47:12.948Z,41.47
2023-03-21T00:49:40.686Z,41.45
2023-03-21T00:52:20.142Z,41.60
2023-03-21T00:54:52.044Z,41.20
2023-03-21T00:57:22.020Z,42.65
2023-03-21T00:59:51.267Z,43.67
2023-03-21T01:02:23.104Z,41.40
2023-03-21T01:04:50.633Z,40.78
2023-03-21T01:07:17.770Z,40.40
2023-03-21T01:09:44.993Z,39.80
2023-03-21T01:12:12.494Z,39.40
2023-03-21T01:14:39.536Z,40.92
2023-03-21T01:17:07.020Z,40.72
2023-03-21T01:19:50.261Z,39.88
2023-03-21T01:22:18.737Z,38.45
2023-03-21T01:24:55.187Z,38.60
2023-03-21T01:27:24.019Z,38.25
2023-03-21T01:29:51.250Z,39.90
2023-03-21T01:32:18.566Z,40.55
2023-03-21T01:34:45.850Z,40.17
2023-03-21T01:37:13.079Z,38.55
2023-03-21T01:39:46.199Z,39.53
2023-03-21T01:42:14.636Z,39.40
2023-03-21T01:45:30.729Z,39.22
2023-03-21T01:47:57.830Z,38.90
2023-03-21T01:50:32.922Z,39.05
2023-03-21T01:53:06.993Z,39.33
2023-03-21T01:55:37.336Z,38.20
2023-03-21T01:58:23.732Z,38.60
2023-03-21T02:01:10.170Z,36.50
2023-03-21T02:03:54.688Z,38.22
2023-03-21T02:06:53.505Z,37.13
2023-03-21T02:09:40.358Z,38.25
2023-03-21T02:12:13.295Z,38.35
2023-03-21T02:14:40.813Z,38.67
2023-03-21T02:17:47.749Z,38.95
2023-03-21T02:20:55.140Z,38.08
2023-03-21T02:24:08.381Z,37.35
2023-03-21T02:26:48.216Z,38.63
2023-03-21T02:29:44.989Z,38.60
2023-03-21T02:32:40.419Z,38.42
2023-03-21T02:35:28.726Z,38.22
2023-03-21T02:38:22.096Z,39.42
2023-03-21T02:41:18.293Z,39.72
2023-03-21T02:44:06.283Z,39.75
2023-03-21T02:46:47.088Z,41.20
2023-03-21T02:49:35.091Z,41.78
2023-03-21T02:52:15.690Z,40.65
2023-03-21T02:54:48.988Z,42.17
2023-03-21T02:57:22.878Z,42.78
2023-03-21T02:59:55.677Z,43.22
2023-03-21T03:02:33.525Z,44.05
2023-03-21T03:05:00.741Z,44.83
2023-03-21T03:07:57.794Z,47.95
2023-03-21T03:10:43.442Z,47.05
2023-03-21T03:13:29.340Z,48.53
2023-03-21T03:16:03.240Z,48.95
2023-03-21T03:18:45.916Z,50.15
2023-03-21T03:21:39.353Z,49.92
2023-03-21T03:24:20.308Z,51.70
2023-03-21T03:26:58.292Z,51.70
2023-03-21T03:29:30.373Z,52.78
2023-03-21T03:32:11.122Z,53.22
2023-03-21T03:34:49.669Z,55.28
2023-03-21T03:37:26.340Z,56.63
2023-03-21T03:40:11.663Z,58.00
2023-03-21T03:42:53.962Z,59.35
2023-03-21T03:45:47.779Z,56.85
2023-03-21T03:48:34.333Z,58.88
2023-03-21T03:51:07.433Z,56.97
2023-03-21T03:53:58.786Z,60.00
2023-03-21T03:56:29.785Z,58.97
2023-03-21T03:58:58.199Z,59.88
2023-03-21T04:01:42.746Z,60.00
2023-03-21T04:04:13.315Z,59.45
2023-03-21T04:06:41.846Z,61.85
2023-03-21T04:09:19.204Z,61.33
2023-03-21T04:11:49.136Z,61.08
2023-03-21T04:14:16.770Z,58.10
2023-03-21T04:16:45.448Z,58.42
2023-03-21T04:19:15.974Z,57.25
2023-03-21T04:21:44.297Z,56.20
2023-03-21T04:24:12.219Z,53.42
2023-03-21T04:26:41.153Z,52.47
2023-03-21T04:29:43.824Z,50.47
2023-03-21T04:32:34.029Z,52.42
2023-03-21T04:35:11.550Z,50.28
2023-03-21T04:37:39.310Z,49.92
2023-03-21T04:40:10.512Z,49.35
2023-03-21T04:42:38.231Z,49.55
2023-03-21T04:45:06.250Z,49.42
2023-03-21T04:47:33.830Z,47.85
2023-03-21T04:50:01.130Z,48.88
2023-03-21T04:52:28.158Z,45.97
2023-03-21T04:54:55.672Z,45.10
2023-03-21T04:57:23.393Z,46.30
2023-03-21T04:59:50.397Z,46.83
2023-03-21T05:02:17.555Z,44.20
2023-03-21T05:04:44.649Z,44.50
2023-03-21T05:07:11.899Z,44.25
2023-03-21T05:09:39.311Z,43.65
2023-03-21T05:12:06.919Z,42.45
2023-03-21T05:14:35.361Z,39.15
2023-03-21T05:17:05.528Z,40.20
2023-03-21T05:19:40.567Z,38.95
2023-03-21T05:22:11.101Z,37.70
2023-03-21T05:24:42.018Z,36.30
2023-03-21T05:27:36.034Z,35.47
2023-03-21T05:30:16.651Z,34.15
2023-03-21T05:32:45.206Z,34.38
2023-03-21T05:35:13.083Z,32.45
2023-03-21T05:37:40.844Z,33.78
2023-03-21T05:40:09.272Z,32.80
2023-03-21T05:42:39.012Z,29.80
2023-03-21T05:45:16.145Z,30.25
2023-03-21T05:47:43.616Z,30.35
2023-03-21T05:50:13.524Z,30.23
2023-03-21T05:52:44.261Z,30.17
2023-03-21T05:55:14.277Z,28.95
2023-03-21T05:57:42.578Z,27.13
2023-03-21T06:00:30.743Z,26.17
2023-03-21T06:03:16.994Z,24.55
2023-03-21T06:06:01.022Z,24.67
2023-03-21T06:08:34.633Z,25.10
2023-03-21T06:11:02.217Z,23.90
2023-03-21T06:13:32.953Z,23.67
2023-03-21T06:16:00.312Z,24.25
2023-03-21T06:18:28.154Z,23.90
2023-03-21T06:21:17.876Z,24.65
2023-03-21T06:23:44.994Z,23.98
2023-03-21T06:26:12.634Z,22.55
2023-03-21T06:28:41.357Z,22.58
2023-03-21T06:31:08.742Z,21.55
2023-03-21T06:33:35.919Z,21.27
2023-03-21T06:36:03.387Z,21.65
2023-03-21T06:38:31.955Z,21.38
2023-03-21T06:40:59.381Z,21.73
2023-03-21T06:43:32.231Z,20.50
2023-03-21T06:46:03.913Z,19.35
2023-03-21T06:48:31.653Z,19.35
2023-03-21T06:50:59.689Z,17.58
2023-03-21T06:53:30.094Z,17.27
2023-03-21T06:56:18.269Z,18.00
2023-03-21T06:58:46.747Z,17.73
2023-03-21T07:01:46.313Z,18.30
2023-03-21T07:04:14.105Z,19.90
2023-03-21T07:06:42.550Z,19.60
2023-03-21T07:09:10.157Z,20.20
2023-03-21T07:11:38.582Z,18.42
2023-03-21T07:14:06.957Z,17.25
2023-03-21T07:16:34.225Z,17.23
2023-03-21T07:19:01.361Z,15.70
2023-03-21T07:21:28.523Z,14.32
2023-03-21T07:23:55.913Z,14.65
2023-03-21T07:26:23.016Z,14.52
2023-03-21T07:28:50.319Z,13.68
2023-03-21T07:31:18.126Z,13.05
2023-03-21T07:33:45.763Z,12.43
2023-03-21T07:36:15.721Z,11.80
2023-03-21T07:38:44.173Z,11.15
2023-03-21T07:41:12.164Z,9.80
2023-03-21T07:43:39.558Z,9.75
2023-03-21T07:46:10.072Z,9.38
2023-03-21T07:48:38.129Z,9.55
2023-03-21T07:51:07.126Z,9.18
2023-03-21T07:53:36.021Z,9.32
2023-03-21T07:56:04.180Z,9.93
2023-03-21T07:58:31.436Z,10.02
2023-03-21T08:00:59.132Z,10.13
2023-03-21T08:03:29.396Z,9.82
2023-03-21T08:05:58.882Z,9.43
2023-03-21T08:08:26.191Z,9.02
2023-03-21T08:10:53.220Z,9.25
2023-03-21T08:13:21.140Z,9.88
2023-03-21T08:15:48.245Z,10.23
2023-03-21T08:18:15.404Z,9.77
2023-03-21T08:20:42.519Z,9.38
2023-03-21T08:23:09.747Z,10.20
2023-03-21T08:25:37.749Z,10.23
2023-03-21T08:28:05.031Z,10.20
2023-03-21T08:30:32.317Z,9.68
2023-03-21T08:33:01.767Z,10.50
2023-03-21T08:35:30.082Z,11.43
2023-03-21T08:37:57.452Z,12.40
2023-03-21T08:40:24.634Z,12.05
2023-03-21T08:42:51.695Z,12.82
2023-03-21T08:45:18.757Z,8.40
2023-03-21T08:47:46.698Z,9.35
2023-03-21T08:50:17.478Z,9.85
2023-03-21T08:52:44.733Z,11.30
2023-03-21T08:55:13.221Z,10.82
2023-03-21T08:57:40.451Z,12.80
2023-03-21T09:00:15.303Z,13.50
2023-03-21T09:02:43.427Z,13.30
2023-03-21T09:05:12.208Z,13.40
2023-03-21T09:07:41.010Z,14.30
2023-03-21T09:10:21.029Z,14.30
2023-03-21T09:12:50.133Z,15.07
2023-03-21T09:15:18.635Z,14.23
2023-03-21T09:17:49.036Z,15.55
2023-03-21T09:20:18.792Z,14.68
2023-03-21T09:22:52.054Z,14.70
2023-03-21T09:25:20.786Z,14.63
2023-03-21T09:27:48.046Z,14.52
2023-03-21T09:30:17.580Z,14.13
2023-03-21T09:32:49.647Z,15.70
2023-03-21T09:35:19.167Z,15.60
2023-03-21T09:37:48.023Z,16.50
2023-03-21T09:40:19.764Z,16.40
2023-03-21T09:43:07.144Z,17.05
2023-03-21T09:46:01.160Z,18.50
2023-03-21T09:48:50.640Z,22.52
2023-03-21T09:51:23.873Z,21.58
2023-03-21T09:53:52.632Z,21.65
2023-03-21T09:56:20.204Z,21.33
2023-03-21T09:58:53.351Z,21.42
2023-03-21T10:01:28.522Z,20.90
2023-03-21T10:04:03.274Z,20.30
2023-03-21T10:06:32.045Z,21.55
2023-03-21T10:09:09.385Z,21.77
2023-03-21T10:11:48.823Z,21.40
2023-03-21T10:14:19.173Z,21.98
2023-03-21T10:16:51.375Z,21.30
2023-03-21T10:19:20.388Z,20.52
2023-03-21T10:22:01.282Z,20.80
2023-03-21T10:24:31.888Z,20.63
2023-03-21T10:26:59.369Z,21.25
2023-03-21T10:29:37.247Z,20.25
2023-03-21T10:32:05.193Z,19.92
2023-03-21T10:34:37.730Z,19.10
2023-03-21T10:37:06.328Z,19.92
2023-03-21T10:39:42.610Z,20.70
2023-03-21T10:42:28.525Z,21.05
2023-03-21T10:44:57.675Z,21.40
2023-03-21T10:47:26.576Z,21.80
2023-03-21T10:50:07.323Z,21.45
2023-03-21T10:52:37.430Z,22.33
2023-03-21T10:55:19.136Z,21.95
2023-03-21T10:57:47.376Z,21.77
2023-03-21T11:00:27.479Z,21.52
2023-03-21T11:02:55.119Z,21.92
2023-03-21T11:05:25.368Z,22.38
2023-03-21T11:08:05.185Z,24.73
2023-03-21T11:10:48.330Z,23.90
2023-03-21T11:13:24.241Z,22.73
2023-03-21T11:16:05.494Z,24.13
2023-03-21T11:18:36.046Z,45.38
2023-03-21T11:21:06.406Z,28.58
2023-03-21T11:23:37.933Z,21.17
2023-03-21T11:26:10.458Z,20.73
2023-03-21T11:28:40.641Z,20.40
2023-03-21T11:31:11.712Z,20.67
2023-03-21T11:34:08.922Z,21.98
2023-03-21T11:36:41.008Z,21.10
2023-03-21T11:39:46.561Z,19.08
2023-03-21T11:42:29.270Z,21.38
2023-03-21T11:45:16.534Z,20.58
2023-03-21T11:47:44.276Z,21.63
2023-03-21T11:50:18.076Z,21.30
2023-03-21T11:52:59.463Z,20.92
2023-03-21T11:55:35.551Z,22.17
2023-03-21T11:58:22.653Z,24.55
2023-03-21T12:01:14.339Z,23.77
2023-03-21T12:04:01.686Z,24.38
2023-03-21T12:06:41.758Z,24.55
2023-03-21T12:09:41.703Z,26.65
2023-03-21T12:12:37.944Z,25.90
2023-03-21T12:15:22.186Z,26.23
2023-03-21T12:18:01.057Z,25.67
2023-03-21T12:20:48.978Z,26.55
2023-03-21T12:23:30.689Z,29.95
2023-03-21T12:26:03.881Z,36.25
2023-03-21T12:29:10.586Z,27.23
2023-03-21T12:31:46.757Z,26.92
2023-03-21T12:34:28.786Z,26.52
2023-03-21T12:37:03.868Z,27.35
2023-03-21T12:39:41.223Z,27.13
2023-03-21T12:42:13.918Z,27.25
2023-03-21T12:44:50.598Z,26.10
2023-03-21T12:47:23.686Z,26.42
2023-03-21T12:50:03.787Z,26.92
2023-03-21T12:52:32.692Z,26.58
2023-03-21T12:55:07.789Z,27.50
2023-03-21T12:57:56.347Z,26.92
2023-03-21T13:00:30.814Z,26.50
2023-03-21T13:03:03.829Z,28.73
2023-03-21T13:05:35.983Z,29.10
2023-03-21T13:08:16.128Z,30.20
2023-03-21T13:10:55.541Z,30.00
2023-03-21T13:13:49.403Z,30.17
2023-03-21T13:16:28.584Z,32.05
2023-03-21T13:19:20.961Z,31.10
2023-03-21T13:22:24.716Z,31.60
2023-03-21T13:25:16.969Z,31.75
2023-03-21T13:27:47.312Z,31.88
2023-03-21T13:30:26.546Z,30.67
2023-03-21T13:33:08.242Z,30.38
2023-03-21T13:35:39.179Z,35.42
2023-03-21T13:38:22.897Z,43.80
2023-03-21T13:40:57.167Z,30.90
2023-03-21T13:43:55.993Z,29.42
2023-03-21T13:46:26.283Z,30.08
2023-03-21T13:48:58.931Z,30.58
2023-03-21T13:51:29.839Z,29.65
2023-03-21T13:54:30.128Z,29.48
2023-03-21T13:57:01.296Z,31.00
2023-03-21T13:59:42.300Z,30.38
2023-03-21T14:02:15.166Z,30.98
2023-03-21T14:05:03.702Z,32.10
2023-03-21T14:07:33.333Z,31.40
2023-03-21T14:10:05.164Z,32.28
2023-03-21T14:12:43.920Z,32.60
2023-03-21T14:15:26.483Z,33.40
2023-03-21T14:17:56.437Z,35.30
2023-03-21T14:20:30.736Z,33.97
2023-03-21T14:22:58.561Z,34.95
2023-03-21T14:25:40.782Z,35.17
2023-03-21T14:28:33.247Z,36.80
2023-03-21T14:31:01.311Z,37.88
2023-03-21T14:33:41.644Z,43.90
2023-03-21T14:36:16.745Z,40.03
2023-03-21T14:38:44.158Z,44.90
2023-03-21T14:41:28.873Z,56.00
2023-03-21T14:44:11.278Z,48.83
2023-03-21T14:46:39.895Z,39.60
2023-03-21T14:49:25.869Z,39.20
2023-03-21T14:51:59.346Z,38.17
2023-03-21T14:54:31.443Z,37.10
2023-03-21T14:57:04.967Z,36.78
2023-03-21T14:59:38.314Z,38.05
2023-03-21T15:02:19.247Z,37.72
2023-03-21T15:04:52.816Z,37.85
2023-03-21T15:07:26.178Z,38.85
2023-03-21T15:09:58.340Z,38.70
2023-03-21T15:12:25.608Z,40.40
2023-03-21T15:14:53.689Z,40.42
2023-03-21T15:17:21.442Z,40.15
2023-03-21T15:19:48.782Z,40.15
2023-03-21T15:22:19.492Z,39.40
2023-03-21T15:24:52.661Z,40.30
2023-03-21T15:27:23.922Z,44.65
2023-03-21T15:29:57.042Z,42.45
2023-03-21T15:32:28.368Z,60.35
2023-03-21T15:35:05.055Z,45.90
2023-03-21T15:37:36.831Z,40.83
2023-03-21T15:40:29.118Z,47.50
2023-03-21T15:43:15.130Z,41.67
2023-03-21T15:45:55.583Z,42.35
2023-03-21T15:48:27.491Z,41.92
2023-03-21T15:51:05.118Z,42.83
2023-03-21T15:53:35.558Z,41.97
2023-03-21T15:56:06.167Z,43.40
2023-03-21T15:58:36.077Z,44.03
2023-03-21T16:01:07.462Z,44.63
2023-03-21T16:03:40.623Z,45.40
2023-03-21T16:06:24.492Z,45.60
2023-03-21T16:09:22.336Z,44.33
2023-03-21T16:11:58.929Z,45.03
2023-03-21T16:14:28.211Z,44.63
2023-03-21T16:16:56.710Z,41.65
2023-03-21T16:19:24.759Z,42.58
2023-03-21T16:21:52.785Z,41.22
2023-03-21T16:24:20.229Z,42.78
2023-03-21T16:26:52.293Z,42.17
2023-03-21T16:29:19.707Z,42.70
2023-03-21T16:31:48.895Z,45.13
2023-03-21T16:34:16.000Z,42.88
2023-03-21T16:36:44.098Z,45.00
2023-03-21T16:39:21.080Z,44.83
2023-03-21T16:41:48.984Z,44.28
2023-03-21T16:44:16.447Z,45.28
2023-03-21T16:46:43.732Z,44.70
2023-03-21T16:49:26.188Z,45.72
2023-03-21T16:51:54.750Z,45.63
2023-03-21T16:54:22.437Z,44.58
2023-03-21T16:56:54.878Z,44.15
2023-03-21T16:59:22.584Z,43.97
2023-03-21T17:01:50.345Z,45.70
2023-03-21T17:04:18.583Z,44.55
2023-03-21T17:06:51.578Z,45.22
2023-03-21T17:09:22.693Z,42.17
2023-03-21T17:11:50.365Z,43.55
2023-03-21T17:14:18.765Z,44.53
2023-03-21T17:16:46.301Z,45.67
2023-03-21T17:19:20.222Z,44.60
2023-03-21T17:21:47.456Z,43.55
2023-03-21T17:24:14.620Z,44.97
2023-03-21T17:26:41.883Z,46.22
2023-03-21T17:29:13.403Z,46.35
2023-03-21T17:31:41.333Z,46.38
2023-03-21T17:34:09.764Z,45.75
2023-03-21T17:36:39.830Z,45.42
2023-03-21T17:39:09.821Z,45.15
2023-03-21T17:41:36.904Z,44.72
2023-03-21T17:44:04.126Z,46.08
2023-03-21T17:46:36.844Z,45.33
2023-03-21T17:49:05.601Z,45.80
2023-03-21T17:51:33.302Z,45.58
2023-03-21T17:54:01.002Z,46.22
2023-03-21T17:56:31.307Z,46.25
2023-03-21T17:59:01.000Z,46.55
2023-03-21T18:01:30.846Z,44.85
2023-03-21T18:03:59.510Z,48.00
2023-03-21T18:06:26.905Z,47.25
2023-03-21T18:08:54.672Z,48.60
2023-03-21T18:11:24.093Z,47.17
2023-03-21T18:14:01.384Z,47.50
2023-03-21T18:16:34.241Z,47.63
2023-03-21T18:19:01.338Z,48.55
2023-03-21T18:21:32.201Z,50.15
2023-03-21T18:24:02.916Z,50.83
2023-03-21T18:26:31.219Z,52.67
2023-03-21T18:29:47.450Z,50.53
2023-03-21T18:32:02.584Z,52.55
2023-03-21T18:34:32.655Z,54.85
2023-03-21T18:36:59.752Z,57.03
2023-03-21T18:39:29.584Z,57.60
2023-03-21T18:42:02.537Z,57.15
2023-03-21T18:44:31.526Z,62.35
2023-03-21T18:46:58.917Z,63.10
2023-03-21T18:52:13.302Z,61.28
2023-03-21T18:54:40.603Z,64.38
2023-03-21T18:59:56.754Z,65.05
2023-03-21T19:02:23.786Z,64.53
2023-03-21T19:04:50.915Z,63.15
2023-03-21T19:07:18.258Z,62.60
2023-03-21T19:10:13.959Z,65.07
2023-03-21T19:12:32.623Z,65.25
2023-03-21T19:14:59.657Z,66.55
2023-03-21T19:18:21.835Z,67.10
2023-03-21T19:20:16.551Z,64.68
2023-03-21T19:22:44.029Z,67.80
2023-03-21T19:25:13.076Z,68.32
2023-03-21T19:27:41.409Z,65.28
2023-03-21T19:30:15.361Z,65.22
2023-03-21T19:32:44.170Z,68.28
2023-03-21T19:35:11.288Z,69.25
2023-03-21T19:37:38.456Z,68.70
2023-03-21T19:40:07.250Z,73.93
2023-03-21T19:42:36.459Z,72.15
2023-03-21T19:45:05.615Z,73.57
2023-03-21T19:47:32.926Z,70.05
2023-03-21T19:50:43.965Z,68.32
2023-03-21T19:52:47.267Z,71.15
2023-03-21T19:55:15.110Z,71.90
2023-03-21T19:57:42.414Z,69.20
2023-03-21T20:00:11.576Z,68.22
2023-03-21T20:02:39.153Z,69.60
2023-03-21T20:05:07.192Z,65.30
2023-03-21T20:07:34.178Z,67.93
2023-03-21T20:10:01.517Z,66.80
2023-03-21T20:12:28.778Z,77.03
2023-03-21T20:15:10.209Z,67.72
2023-03-21T20:17:43.532Z,65.90
2023-03-21T20:20:14.325Z,64.90
2023-03-21T20:23:05.654Z,65.40
2023-03-21T20:25:33.372Z,64.65
2023-03-21T20:28:15.172Z,63.65
2023-03-21T20:30:53.232Z,64.22
2023-03-21T20:33:20.510Z,64.70
2023-03-21T20:38:37.314Z,63.85
2023-03-21T20:41:06.743Z,64.45
2023-03-21T20:46:21.668Z,65.68
2023-03-21T20:48:51.731Z,65.68
2023-03-21T20:54:06.631Z,65.10
2023-03-21T20:56:34.288Z,65.05
2023-03-21T20:59:15.812Z,65.03
2023-03-21T21:01:48.240Z,63.13
2023-03-21T21:04:20.192Z,63.42
2023-03-21T21:06:48.394Z,65.47
2023-03-21T21:09:15.928Z,66.90
2023-03-21T21:12:06.042Z,65.03
2023-03-21T21:14:30.294Z,62.80
2023-03-21T21:16:57.347Z,67.95
2023-03-21T21:19:24.680Z,64.35
2023-03-21T21:21:51.781Z,63.25
2023-03-21T21:24:19.044Z,63.72
2023-03-21T21:26:46.451Z,61.88
2023-03-21T21:29:17.168Z,64.45
2023-03-21T21:31:51.430Z,62.40
2023-03-21T21:34:19.911Z,62.85
2023-03-21T21:36:47.529Z,59.25
2023-03-21T21:39:17.393Z,61.15
2023-03-21T21:41:44.565Z,61.72
2023-03-21T21:44:11.603Z,61.70
2023-03-21T21:46:38.918Z,61.10
2023-03-21T21:49:06.170Z,61.80
2023-03-21T21:51:34.802Z,61.38
2023-03-21T21:54:04.417Z,62.92
2023-03-21T21:56:35.087Z,67.55
2023-03-21T21:59:03.568Z,65.53
2023-03-21T22:01:31.836Z,63.47
2023-03-21T22:04:06.334Z,63.72
2023-03-21T22:06:34.736Z,67.10
2023-03-21T22:09:03.932Z,68.22
2023-03-21T22:11:30.964Z,67.45
2023-03-21T22:13:58.169Z,68.43
2023-03-21T22:16:25.396Z,70.93
2023-03-21T22:18:52.560Z,73.47
2023-03-21T22:21:19.608Z,72.00
2023-03-21T22:23:46.788Z,74.05
2023-03-21T22:26:14.271Z,73.55
2023-03-21T22:28:42.389Z,76.50
2023-03-21T22:31:18.336Z,77.50
2023-03-21T22:33:45.854Z,76.07
2023-03-21T22:36:13.062Z,77.30
2023-03-21T22:38:42.083Z,79.53
2023-03-21T22:41:09.382Z,79.00
2023-03-21T22:43:36.770Z,78.95
2023-03-21T22:46:05.517Z,78.38
2023-03-21T22:48:33.176Z,84.50
2023-03-21T22:51:00.887Z,81.53
2023-03-21T22:53:28.387Z,81.82
2023-03-21T22:55:56.016Z,79.72
2023-03-21T22:58:23.751Z,83.85
2023-03-21T23:00:51.269Z,80.43
2023-03-21T23:03:18.755Z,82.20
2023-03-21T23:05:46.048Z,81.00
2023-03-21T23:08:13.438Z,79.45
2023-03-21T23:10:43.700Z,79.82
2023-03-21T23:13:11.457Z,81.00
2023-03-21T23:15:38.906Z,83.60
2023-03-21T23:18:06.688Z,78.68
2023-03-21T23:20:33.788Z,79.07
2023-03-21T23:23:00.879Z,80.93
2023-03-21T23:25:29.125Z,78.45
2023-03-21T23:27:56.202Z,79.43
2023-03-21T23:30:23.253Z,77.57
2023-03-21T23:32:50.443Z,78.13
2023-03-21T23:35:17.814Z,76.28
2023-03-21T23:37:51.980Z,76.68
2023-03-21T23:40:20.176Z,73.45
2023-03-21T23:42:47.339Z,70.95
2023-03-21T23:45:14.548Z,71.93
2023-03-21T23:47:41.561Z,73.07
2023-03-21T23:50:10.037Z,70.13
2023-03-21T23:52:37.533Z,73.10
2023-03-21T23:55:05.827Z,71.00
2023-03-21T23:57:33.272Z,70.00
